createdAt,value
2019-05-17T00:00:17.899Z,1010.19
2019-05-17T00:01:17.861Z,1010.25
2019-05-17T00:02:18.459Z,1010.30
2019-05-17T00:03:17.841Z,1010.28
2019-05-17T00:04:17.823Z,1010.26
2019-05-17T00:05:17.941Z,1010.24
2019-05-17T00:06:17.805Z,1010.25
2019-05-17T00:07:17.806Z,1010.19
2019-05-17T00:08:31.041Z,1010.17
2019-05-17T00:09:18.780Z,1010.19
2019-05-17T00:10:17.754Z,1010.12
2019-05-17T00:11:17.743Z,1010.09
2019-05-17T00:12:17.750Z,1010.04
2019-05-17T00:13:17.722Z,1010.05
2019-05-17T00:14:17.711Z,1010.09
2019-05-17T00:15:17.706Z,1010.00
2019-05-17T00:16:17.716Z,1010.02
2019-05-17T00:17:17.714Z,1010.05
2019-05-17T00:18:17.686Z,1010.03
2019-05-17T00:19:17.653Z,1010.00
2019-05-17T00:20:17.731Z,1010.01
2019-05-17T00:21:17.633Z,1010.00
2019-05-17T00:22:17.619Z,1009.99
2019-05-17T00:23:17.623Z,1009.96
2019-05-17T00:24:18.324Z,1009.94
2019-05-17T00:25:17.589Z,1009.96
2019-05-17T00:26:17.579Z,1009.93
2019-05-17T00:27:17.563Z,1009.91
2019-05-17T00:28:17.585Z,1009.90
2019-05-17T00:29:17.556Z,1009.91
2019-05-17T00:30:17.831Z,1009.84
2019-05-17T00:31:17.519Z,1009.85
2019-05-17T00:32:17.511Z,1009.83
2019-05-17T00:33:17.525Z,1009.82
2019-05-17T00:34:17.486Z,1009.85
2019-05-17T00:35:18.006Z,1009.83
2019-05-17T00:36:17.971Z,1009.84
2019-05-17T00:37:17.568Z,1009.80
2019-05-17T00:38:17.469Z,1009.79
2019-05-17T00:39:17.465Z,1009.84
2019-05-17T00:40:17.423Z,1009.81
2019-05-17T00:41:17.713Z,1009.76
2019-05-17T00:42:17.396Z,1009.77
2019-05-17T00:43:17.404Z,1009.79
2019-05-17T00:44:17.377Z,1009.75
2019-05-17T00:45:17.760Z,1009.76
2019-05-17T00:46:17.396Z,1009.69
2019-05-17T00:47:17.350Z,1009.71
2019-05-17T00:48:17.376Z,1009.77
2019-05-17T00:49:17.351Z,1009.75
2019-05-17T00:50:17.364Z,1009.73
2019-05-17T00:51:17.305Z,1009.77
2019-05-17T00:52:17.302Z,1009.73
2019-05-17T00:53:17.303Z,1009.76
2019-05-17T00:54:17.613Z,1009.78
2019-05-17T00:55:17.696Z,1009.69
2019-05-17T00:56:17.266Z,1009.69
2019-05-17T00:57:17.240Z,1009.69
2019-05-17T00:58:17.553Z,1009.73
2019-05-17T00:59:17.285Z,1009.75
2019-05-17T01:00:17.414Z,1009.71
2019-05-17T01:01:17.197Z,1009.81
2019-05-17T01:02:17.208Z,1009.79
2019-05-17T01:03:17.267Z,1009.81
2019-05-17T01:04:17.476Z,1009.82
2019-05-17T01:05:17.365Z,1009.77
2019-05-17T01:06:17.149Z,1009.82
2019-05-17T01:07:17.710Z,1009.78
2019-05-17T01:08:17.560Z,1009.76
2019-05-17T01:09:17.227Z,1009.73
2019-05-17T01:10:17.098Z,1009.70
2019-05-17T01:11:17.081Z,1009.73
2019-05-17T01:12:17.075Z,1009.76
2019-05-17T01:13:17.421Z,1009.71
2019-05-17T01:14:17.689Z,1009.74
2019-05-17T01:15:17.039Z,1009.72
2019-05-17T01:16:17.035Z,1009.74
2019-05-17T01:17:17.012Z,1009.73
2019-05-17T01:18:16.998Z,1009.73
2019-05-17T01:19:17.012Z,1009.73
2019-05-17T01:20:17.488Z,1009.73
2019-05-17T01:21:17.008Z,1009.71
2019-05-17T01:22:17.468Z,1009.75
2019-05-17T01:23:16.945Z,1009.75
2019-05-17T01:24:17.458Z,1009.72
2019-05-17T01:25:17.346Z,1009.77
2019-05-17T01:26:18.423Z,1009.78
2019-05-17T01:27:17.347Z,1009.74
2019-05-17T01:28:16.887Z,1009.73
2019-05-17T01:29:17.505Z,1009.75
2019-05-17T01:30:17.445Z,1009.75
2019-05-17T01:31:17.351Z,1009.76
2019-05-17T01:32:17.334Z,1009.70
2019-05-17T01:33:17.268Z,1009.68
2019-05-17T01:34:16.892Z,1009.72
2019-05-17T01:35:17.052Z,1009.68
2019-05-17T01:36:17.289Z,1009.66
2019-05-17T01:37:17.294Z,1009.67
2019-05-17T01:38:17.773Z,1009.65
2019-05-17T01:39:21.129Z,1009.67
2019-05-17T01:40:17.576Z,1009.67
2019-05-17T01:41:17.349Z,1009.67
2019-05-17T01:42:17.327Z,1009.69
2019-05-17T01:43:16.812Z,1009.65
2019-05-17T01:44:16.911Z,1009.68
2019-05-17T01:45:16.933Z,1009.70
2019-05-17T01:46:17.215Z,1009.67
2019-05-17T01:47:16.798Z,1009.67
2019-05-17T01:48:16.680Z,1009.67
2019-05-17T01:49:16.688Z,1009.64
2019-05-17T01:50:17.478Z,1009.65
2019-05-17T01:51:17.051Z,1009.65
2019-05-17T01:52:16.835Z,1009.62
2019-05-17T01:53:16.776Z,1009.61
2019-05-17T01:54:17.598Z,1009.64
2019-05-17T01:55:17.366Z,1009.66
2019-05-17T01:56:17.028Z,1009.60
2019-05-17T01:57:16.979Z,1009.60
2019-05-17T01:58:16.564Z,1009.62
2019-05-17T01:59:17.324Z,1009.63
2019-05-17T02:00:17.538Z,1009.64
2019-05-17T02:01:17.089Z,1009.62
2019-05-17T02:02:16.522Z,1009.62
2019-05-17T02:03:17.313Z,1009.65
2019-05-17T02:04:17.362Z,1009.62
2019-05-17T02:05:17.291Z,1009.51
2019-05-17T02:06:16.673Z,1009.54
2019-05-17T02:07:17.298Z,1009.54
2019-05-17T02:08:17.109Z,1009.56
2019-05-17T02:09:32.339Z,1009.52
2019-05-17T02:10:17.445Z,1009.53
2019-05-17T02:11:18.468Z,1009.52
2019-05-17T02:12:17.318Z,1009.53
2019-05-17T02:13:16.593Z,1009.51
2019-05-17T02:14:16.711Z,1009.47
2019-05-17T02:15:16.629Z,1009.50
2019-05-17T02:16:16.624Z,1009.48
2019-05-17T02:17:17.420Z,1009.47
2019-05-17T02:18:17.369Z,1009.46
2019-05-17T02:19:17.444Z,1009.49
2019-05-17T02:20:17.016Z,1009.46
2019-05-17T02:21:16.816Z,1009.48
2019-05-17T02:22:16.852Z,1009.53
2019-05-17T02:23:17.435Z,1009.50
2019-05-17T02:24:16.906Z,1009.53
2019-05-17T02:25:16.708Z,1009.50
2019-05-17T02:26:17.407Z,1009.47
2019-05-17T02:27:16.234Z,1009.56
2019-05-17T02:28:16.225Z,1009.52
2019-05-17T02:29:16.220Z,1009.54
2019-05-17T02:30:16.222Z,1009.58
2019-05-17T02:31:16.193Z,1009.56
2019-05-17T02:32:16.183Z,1009.54
2019-05-17T02:33:16.172Z,1009.54
2019-05-17T02:34:16.187Z,1009.54
2019-05-17T02:35:16.158Z,1009.57
2019-05-17T02:36:16.133Z,1009.57
2019-05-17T02:37:16.135Z,1009.54
2019-05-17T02:38:16.117Z,1009.51
2019-05-17T02:39:16.098Z,1009.50
2019-05-17T02:40:16.111Z,1009.49
2019-05-17T02:41:16.081Z,1009.51
2019-05-17T02:42:16.081Z,1009.52
2019-05-17T02:43:16.058Z,1009.47
2019-05-17T02:44:16.046Z,1009.48
2019-05-17T02:45:16.056Z,1009.49
2019-05-17T02:46:16.022Z,1009.51
2019-05-17T02:47:16.513Z,1009.48
2019-05-17T02:48:16.008Z,1009.53
2019-05-17T02:49:15.990Z,1009.51
2019-05-17T02:50:16.005Z,1009.50
2019-05-17T02:51:15.964Z,1009.46
2019-05-17T02:52:16.058Z,1009.52
2019-05-17T02:53:15.946Z,1009.47
2019-05-17T02:54:16.469Z,1009.50
2019-05-17T02:55:15.959Z,1009.47
2019-05-17T02:56:15.912Z,1009.47
2019-05-17T02:57:15.911Z,1009.48
2019-05-17T02:58:15.892Z,1009.46
2019-05-17T02:59:16.451Z,1009.45
2019-05-17T03:00:15.912Z,1009.47
2019-05-17T03:01:15.851Z,1009.43
2019-05-17T03:02:15.853Z,1009.47
2019-05-17T03:03:15.836Z,1009.46
2019-05-17T03:04:15.827Z,1009.43
2019-05-17T03:05:15.843Z,1009.44
2019-05-17T03:06:15.832Z,1009.45
2019-05-17T03:07:15.785Z,1009.45
2019-05-17T03:08:15.782Z,1009.48
2019-05-17T03:09:15.762Z,1009.48
2019-05-17T03:10:23.567Z,1009.48
2019-05-17T03:11:16.740Z,1009.45
2019-05-17T03:12:15.743Z,1009.48
2019-05-17T03:13:18.013Z,1009.46
2019-05-17T03:14:15.711Z,1009.43
2019-05-17T03:15:15.723Z,1009.45
2019-05-17T03:16:15.722Z,1009.46
2019-05-17T03:17:15.689Z,1009.47
2019-05-17T03:18:15.674Z,1009.48
2019-05-17T03:19:15.654Z,1009.51
2019-05-17T03:20:15.659Z,1009.48
2019-05-17T03:21:15.649Z,1009.49
2019-05-17T03:22:15.629Z,1009.53
2019-05-17T03:23:15.637Z,1009.47
2019-05-17T03:24:15.614Z,1009.51
2019-05-17T03:25:15.610Z,1009.48
2019-05-17T03:26:15.582Z,1009.47
2019-05-17T03:27:15.589Z,1009.51
2019-05-17T03:28:15.563Z,1009.47
2019-05-17T03:29:15.560Z,1009.45
2019-05-17T03:30:18.316Z,1009.46
2019-05-17T03:31:17.269Z,1009.44
2019-05-17T03:32:16.935Z,1009.43
2019-05-17T03:33:16.762Z,1009.44
2019-05-17T03:34:17.421Z,1009.43
2019-05-17T03:35:17.599Z,1009.50
2019-05-17T03:36:17.263Z,1009.44
2019-05-17T03:37:16.332Z,1009.49
2019-05-17T03:38:15.451Z,1009.45
2019-05-17T03:39:15.439Z,1009.46
2019-05-17T03:40:30.596Z,1009.48
2019-05-17T03:41:23.416Z,1009.43
2019-05-17T03:42:16.404Z,1009.43
2019-05-17T03:43:15.391Z,1009.41
2019-05-17T03:44:15.379Z,1009.39
2019-05-17T03:45:15.377Z,1009.47
2019-05-17T03:46:15.379Z,1009.43
2019-05-17T03:47:15.339Z,1009.37
2019-05-17T03:48:15.343Z,1009.45
2019-05-17T03:49:15.323Z,1009.43
2019-05-17T03:50:15.312Z,1009.41
2019-05-17T03:51:15.318Z,1009.41
2019-05-17T03:52:15.289Z,1009.37
2019-05-17T03:53:15.299Z,1009.40
2019-05-17T03:54:15.274Z,1009.37
2019-05-17T03:55:15.267Z,1009.38
2019-05-17T03:56:15.256Z,1009.39
2019-05-17T03:57:15.235Z,1009.40
2019-05-17T03:58:15.222Z,1009.38
2019-05-17T03:59:15.206Z,1009.39
2019-05-17T04:00:15.202Z,1009.38
2019-05-17T04:01:15.219Z,1009.44
2019-05-17T04:02:15.190Z,1009.38
2019-05-17T04:03:15.191Z,1009.39
2019-05-17T04:04:15.184Z,1009.42
2019-05-17T04:05:15.148Z,1009.43
2019-05-17T04:06:15.226Z,1009.44
2019-05-17T04:07:15.124Z,1009.42
2019-05-17T04:08:15.119Z,1009.47
2019-05-17T04:09:15.103Z,1009.46
2019-05-17T04:10:15.629Z,1009.49
2019-05-17T04:11:25.703Z,1009.43
2019-05-17T04:12:16.076Z,1009.41
2019-05-17T04:13:15.061Z,1009.37
2019-05-17T04:14:15.053Z,1009.35
2019-05-17T04:15:15.046Z,1009.36
2019-05-17T04:16:15.050Z,1009.32
2019-05-17T04:17:15.009Z,1009.34
2019-05-17T04:18:15.004Z,1009.34
2019-05-17T04:19:15.007Z,1009.37
2019-05-17T04:20:14.979Z,1009.35
2019-05-17T04:21:14.961Z,1009.30
2019-05-17T04:22:14.960Z,1009.34
2019-05-17T04:23:15.453Z,1009.31
2019-05-17T04:24:14.937Z,1009.32
2019-05-17T04:25:14.948Z,1009.35
2019-05-17T04:26:14.923Z,1009.33
2019-05-17T04:27:14.924Z,1009.29
2019-05-17T04:28:14.889Z,1009.27
2019-05-17T04:30:15.935Z,1009.28
2019-05-17T04:31:14.876Z,1009.27
2019-05-17T04:32:14.875Z,1009.22
2019-05-17T04:33:14.837Z,1009.25
2019-05-17T04:34:14.823Z,1009.25
2019-05-17T04:35:14.812Z,1009.20
2019-05-17T04:36:14.824Z,1009.22
2019-05-17T04:37:14.805Z,1009.11
2019-05-17T04:38:14.774Z,1009.15
2019-05-17T04:39:14.767Z,1009.12
2019-05-17T04:40:14.981Z,1009.13
2019-05-17T04:41:14.756Z,1009.15
2019-05-17T04:42:14.757Z,1009.13
2019-05-17T04:43:14.727Z,1009.13
2019-05-17T04:44:14.713Z,1009.16
2019-05-17T04:45:14.719Z,1009.17
2019-05-17T04:46:14.690Z,1009.15
2019-05-17T04:47:14.707Z,1009.20
2019-05-17T04:48:14.667Z,1009.17
2019-05-17T04:49:14.661Z,1009.16
2019-05-17T04:50:14.648Z,1009.16
2019-05-17T04:51:14.651Z,1009.14
2019-05-17T04:52:14.650Z,1009.10
2019-05-17T04:53:14.617Z,1009.10
2019-05-17T04:54:14.604Z,1009.05
2019-05-17T04:55:14.592Z,1009.10
2019-05-17T04:56:14.578Z,1009.08
2019-05-17T04:57:14.723Z,1009.13
2019-05-17T04:58:14.556Z,1009.17
2019-05-17T04:59:14.544Z,1009.19
2019-05-17T05:00:14.533Z,1009.18
2019-05-17T05:01:14.522Z,1009.23
2019-05-17T05:02:14.533Z,1009.26
2019-05-17T05:03:14.500Z,1009.20
2019-05-17T05:04:15.464Z,1009.23
2019-05-17T05:05:14.622Z,1009.22
2019-05-17T05:06:14.481Z,1009.27
2019-05-17T05:07:14.479Z,1009.22
2019-05-17T05:08:14.446Z,1009.18
2019-05-17T05:09:14.446Z,1009.19
2019-05-17T05:10:14.594Z,1009.16
2019-05-17T05:11:14.413Z,1009.15
2019-05-17T05:12:14.441Z,1009.18
2019-05-17T05:13:14.389Z,1009.15
2019-05-17T05:14:14.382Z,1009.13
2019-05-17T05:15:14.382Z,1009.09
2019-05-17T05:16:14.352Z,1009.11
2019-05-17T05:17:14.353Z,1009.13
2019-05-17T05:18:14.364Z,1009.17
2019-05-17T05:19:14.326Z,1009.14
2019-05-17T05:20:14.310Z,1009.14
2019-05-17T05:21:14.309Z,1009.13
2019-05-17T05:22:16.943Z,1009.08
2019-05-17T05:23:14.307Z,1009.10
2019-05-17T05:24:14.270Z,1009.09
2019-05-17T05:25:14.250Z,1009.08
2019-05-17T05:26:14.243Z,1009.04
2019-05-17T05:27:14.240Z,1009.12
2019-05-17T05:28:14.243Z,1009.07
2019-05-17T05:29:14.230Z,1009.05
2019-05-17T05:30:14.191Z,1009.09
2019-05-17T05:31:14.196Z,1009.03
2019-05-17T05:32:14.208Z,1009.03
2019-05-17T05:33:14.181Z,1009.02
2019-05-17T05:34:14.151Z,1009.03
2019-05-17T05:35:14.152Z,1009.04
2019-05-17T05:36:14.129Z,1009.07
2019-05-17T05:37:14.128Z,1009.05
2019-05-17T05:38:14.135Z,1009.00
2019-05-17T05:39:14.099Z,1009.05
2019-05-17T05:40:14.087Z,1009.00
2019-05-17T05:41:14.092Z,1009.03
2019-05-17T05:42:14.241Z,1009.01
2019-05-17T05:43:14.069Z,1009.05
2019-05-17T05:44:14.037Z,1008.99
2019-05-17T05:45:14.027Z,1009.03
2019-05-17T05:46:14.019Z,1009.01
2019-05-17T05:47:14.010Z,1009.02
2019-05-17T05:48:14.028Z,1008.97
2019-05-17T05:49:14.005Z,1008.97
2019-05-17T05:50:13.977Z,1008.99
2019-05-17T05:51:13.968Z,1008.96
2019-05-17T05:52:13.955Z,1009.02
2019-05-17T05:53:13.959Z,1009.04
2019-05-17T05:54:13.931Z,1009.04
2019-05-17T05:55:13.935Z,1009.02
2019-05-17T05:56:13.909Z,1009.07
2019-05-17T05:57:13.899Z,1009.05
2019-05-17T05:58:13.915Z,1009.06
2019-05-17T05:59:13.906Z,1009.08
2019-05-17T06:00:13.880Z,1009.02
2019-05-17T06:01:14.284Z,1009.02
2019-05-17T06:02:13.838Z,1009.05
2019-05-17T06:03:13.835Z,1009.02
2019-05-17T06:04:13.839Z,1009.03
2019-05-17T06:05:17.241Z,1009.02
2019-05-17T06:06:13.829Z,1009.00
2019-05-17T06:07:13.801Z,1009.02
2019-05-17T06:08:13.777Z,1008.98
2019-05-17T06:09:13.789Z,1008.93
2019-05-17T06:10:13.751Z,1008.96
2019-05-17T06:11:13.737Z,1008.92
2019-05-17T06:12:22.920Z,1008.94
2019-05-17T06:13:14.720Z,1008.95
2019-05-17T06:14:13.750Z,1008.97
2019-05-17T06:15:13.696Z,1008.93
2019-05-17T06:16:13.723Z,1008.98
2019-05-17T06:17:13.677Z,1008.99
2019-05-17T06:18:13.667Z,1008.94
2019-05-17T06:19:13.675Z,1008.96
2019-05-17T06:20:13.638Z,1008.94
2019-05-17T06:21:13.631Z,1008.95
2019-05-17T06:22:13.620Z,1008.94
2019-05-17T06:23:13.619Z,1008.97
2019-05-17T06:24:13.626Z,1008.87
2019-05-17T06:25:15.580Z,1008.93
2019-05-17T06:26:13.565Z,1008.96
2019-05-17T06:27:13.559Z,1008.95
2019-05-17T06:28:13.549Z,1008.97
2019-05-17T06:29:13.558Z,1008.95
2019-05-17T06:30:13.528Z,1008.96
2019-05-17T06:31:15.186Z,1008.95
2019-05-17T06:32:13.505Z,1008.93
2019-05-17T06:33:27.147Z,1008.95
2019-05-17T06:34:14.497Z,1008.94
2019-05-17T06:35:13.473Z,1008.99
2019-05-17T06:36:13.825Z,1009.01
2019-05-17T06:37:16.486Z,1009.02
2019-05-17T06:38:13.447Z,1009.01
2019-05-17T06:39:13.453Z,1008.99
2019-05-17T06:40:13.495Z,1009.02
2019-05-17T06:41:13.408Z,1008.98
2019-05-17T06:42:13.393Z,1009.02
2019-05-17T06:43:13.467Z,1008.91
2019-05-17T06:44:13.391Z,1008.91
2019-05-17T06:45:13.368Z,1008.90
2019-05-17T06:46:13.359Z,1008.86
2019-05-17T06:47:13.344Z,1008.89
2019-05-17T06:48:13.338Z,1008.89
2019-05-17T06:49:13.332Z,1008.93
2019-05-17T06:50:14.472Z,1008.92
2019-05-17T06:51:13.305Z,1008.91
2019-05-17T06:52:13.280Z,1008.94
2019-05-17T06:53:13.275Z,1008.92
2019-05-17T06:54:13.295Z,1008.88
2019-05-17T06:55:13.370Z,1008.87
2019-05-17T06:56:13.237Z,1008.85
2019-05-17T06:57:13.223Z,1008.90
2019-05-17T06:58:13.215Z,1008.90
2019-05-17T06:59:13.205Z,1008.91
2019-05-17T07:00:19.867Z,1008.94
2019-05-17T07:01:14.187Z,1008.91
2019-05-17T07:02:13.175Z,1008.90
2019-05-17T07:03:13.159Z,1008.88
2019-05-17T07:04:13.143Z,1008.93
2019-05-17T07:05:13.305Z,1008.89
2019-05-17T07:06:13.127Z,1008.91
2019-05-17T07:07:13.122Z,1008.87
2019-05-17T07:08:13.121Z,1008.90
2019-05-17T07:09:13.089Z,1008.87
2019-05-17T07:10:13.104Z,1008.86
2019-05-17T07:11:13.089Z,1008.92
2019-05-17T07:12:13.059Z,1008.93
2019-05-17T07:13:13.044Z,1008.88
2019-05-17T07:14:13.036Z,1008.91
2019-05-17T07:15:13.084Z,1008.89
2019-05-17T07:16:13.012Z,1008.88
2019-05-17T07:17:12.999Z,1008.88
2019-05-17T07:18:12.994Z,1008.90
2019-05-17T07:19:12.979Z,1008.87
2019-05-17T07:20:13.018Z,1008.88
2019-05-17T07:21:12.956Z,1008.86
2019-05-17T07:22:12.948Z,1008.83
2019-05-17T07:23:12.937Z,1008.83
2019-05-17T07:24:12.926Z,1008.82
2019-05-17T07:25:12.940Z,1008.79
2019-05-17T07:26:12.903Z,1008.79
2019-05-17T07:27:12.889Z,1008.72
2019-05-17T07:28:12.889Z,1008.74
2019-05-17T07:29:12.869Z,1008.72
2019-05-17T07:30:12.887Z,1008.72
2019-05-17T07:31:12.852Z,1008.70
2019-05-17T07:32:12.837Z,1008.67
2019-05-17T07:33:12.819Z,1008.67
2019-05-17T07:34:12.815Z,1008.64
2019-05-17T07:35:12.819Z,1008.68
2019-05-17T07:36:12.790Z,1008.66
2019-05-17T07:37:12.781Z,1008.66
2019-05-17T07:38:12.779Z,1008.64
2019-05-17T07:39:12.760Z,1008.64
2019-05-17T07:40:12.763Z,1008.61
2019-05-17T07:41:12.736Z,1008.59
2019-05-17T07:42:12.778Z,1008.60
2019-05-17T07:43:14.940Z,1008.62
2019-05-17T07:44:12.697Z,1008.60
2019-05-17T07:45:12.728Z,1008.66
2019-05-17T07:46:12.681Z,1008.62
2019-05-17T07:47:12.680Z,1008.63
2019-05-17T07:48:12.659Z,1008.63
2019-05-17T07:49:12.649Z,1008.63
2019-05-17T07:50:13.082Z,1008.65
2019-05-17T07:51:12.666Z,1008.64
2019-05-17T07:52:12.616Z,1008.64
2019-05-17T07:53:12.615Z,1008.55
2019-05-17T07:54:12.583Z,1008.63
2019-05-17T07:55:12.585Z,1008.57
2019-05-17T07:56:12.587Z,1008.52
2019-05-17T07:57:12.557Z,1008.54
2019-05-17T07:58:12.551Z,1008.51
2019-05-17T07:59:12.531Z,1008.50
2019-05-17T08:00:12.532Z,1008.46
2019-05-17T08:01:12.600Z,1008.45
2019-05-17T08:02:12.504Z,1008.37
2019-05-17T08:03:13.558Z,1008.31
2019-05-17T08:04:12.479Z,1008.29
2019-05-17T08:05:12.475Z,1008.28
2019-05-17T08:06:12.559Z,1008.26
2019-05-17T08:07:12.452Z,1008.16
2019-05-17T08:08:12.447Z,1008.21
2019-05-17T08:09:14.218Z,1008.13
2019-05-17T08:10:12.412Z,1008.09
2019-05-17T08:11:12.415Z,1008.08
2019-05-17T08:12:12.393Z,1008.09
2019-05-17T08:13:25.819Z,1008.07
2019-05-17T08:14:26.470Z,1008.10
2019-05-17T08:15:13.351Z,1008.05
2019-05-17T08:16:12.371Z,1007.99
2019-05-17T08:17:12.336Z,1007.93
2019-05-17T08:18:12.321Z,1007.95
2019-05-17T08:19:12.307Z,1007.90
2019-05-17T08:20:12.430Z,1007.85
2019-05-17T08:21:12.308Z,1007.78
2019-05-17T08:22:12.317Z,1007.84
2019-05-17T08:23:12.264Z,1007.81
2019-05-17T08:24:12.264Z,1007.75
2019-05-17T08:25:12.245Z,1007.83
2019-05-17T08:26:12.255Z,1007.85
2019-05-17T08:27:12.220Z,1007.81
2019-05-17T08:28:12.210Z,1007.84
2019-05-17T08:29:12.199Z,1007.76
2019-05-17T08:30:12.189Z,1007.79
2019-05-17T08:31:12.588Z,1007.75
2019-05-17T08:32:12.163Z,1007.76
2019-05-17T08:33:12.155Z,1007.73
2019-05-17T08:34:12.138Z,1007.80
2019-05-17T08:35:12.135Z,1007.82
2019-05-17T08:36:12.143Z,1007.82
2019-05-17T08:37:12.131Z,1007.81
2019-05-17T08:38:12.102Z,1007.80
2019-05-17T08:39:12.093Z,1007.77
2019-05-17T08:40:15.056Z,1007.79
2019-05-17T08:41:12.081Z,1007.80
2019-05-17T08:42:12.096Z,1007.86
2019-05-17T08:43:12.057Z,1007.83
2019-05-17T08:44:12.039Z,1007.88
2019-05-17T08:45:12.019Z,1007.85
2019-05-17T08:46:12.026Z,1007.80
2019-05-17T08:47:11.995Z,1007.79
2019-05-17T08:48:11.991Z,1007.81
2019-05-17T08:49:11.971Z,1007.83
2019-05-17T08:50:11.967Z,1007.77
2019-05-17T08:51:11.972Z,1007.81
2019-05-17T08:52:11.951Z,1007.81
2019-05-17T08:53:11.953Z,1007.86
2019-05-17T08:54:11.944Z,1007.77
2019-05-17T08:55:11.933Z,1007.73
2019-05-17T08:56:11.916Z,1007.76
2019-05-17T08:57:11.887Z,1007.75
2019-05-17T08:58:11.877Z,1007.73
2019-05-17T08:59:11.868Z,1007.69
2019-05-17T09:00:11.846Z,1007.72
2019-05-17T09:01:11.862Z,1007.76
2019-05-17T09:02:11.827Z,1007.79
2019-05-17T09:03:11.826Z,1007.78
2019-05-17T09:04:11.823Z,1007.81
2019-05-17T09:05:11.804Z,1007.80
2019-05-17T09:06:12.686Z,1007.82
2019-05-17T09:07:11.921Z,1007.85
2019-05-17T09:08:11.763Z,1007.87
2019-05-17T09:09:11.747Z,1007.87
2019-05-17T09:10:11.749Z,1007.85
2019-05-17T09:11:11.742Z,1007.82
2019-05-17T09:12:11.748Z,1007.80
2019-05-17T09:13:14.668Z,1007.86
2019-05-17T09:14:11.698Z,1007.84
2019-05-17T09:15:11.727Z,1007.86
2019-05-17T09:16:11.686Z,1007.90
2019-05-17T09:17:11.738Z,1007.83
2019-05-17T09:18:11.650Z,1007.86
2019-05-17T09:19:11.641Z,1007.84
2019-05-17T09:20:11.645Z,1007.85
2019-05-17T09:21:11.616Z,1007.82
2019-05-17T09:22:11.628Z,1007.86
2019-05-17T09:23:11.598Z,1007.84
2019-05-17T09:24:11.594Z,1007.84
2019-05-17T09:25:18.488Z,1007.78
2019-05-17T09:26:12.562Z,1007.77
2019-05-17T09:27:11.576Z,1007.73
2019-05-17T09:28:11.548Z,1007.71
2019-05-17T09:29:11.524Z,1007.71
2019-05-17T09:30:11.525Z,1007.67
2019-05-17T09:31:11.508Z,1007.66
2019-05-17T09:32:11.530Z,1007.70
2019-05-17T09:33:11.618Z,1007.68
2019-05-17T09:34:11.476Z,1007.67
2019-05-17T09:35:12.075Z,1007.63
2019-05-17T09:36:11.489Z,1007.66
2019-05-17T09:37:14.497Z,1007.59
2019-05-17T09:38:11.430Z,1007.55
2019-05-17T09:39:11.421Z,1007.55
2019-05-17T09:40:11.407Z,1007.57
2019-05-17T09:41:11.398Z,1007.53
2019-05-17T09:42:11.402Z,1007.53
2019-05-17T09:43:11.371Z,1007.55
2019-05-17T09:44:15.843Z,1007.50
2019-05-17T09:45:12.351Z,1007.49
2019-05-17T09:46:11.396Z,1007.53
2019-05-17T09:47:11.363Z,1007.46
2019-05-17T09:48:11.327Z,1007.49
2019-05-17T09:49:11.309Z,1007.45
2019-05-17T09:50:11.300Z,1007.44
2019-05-17T09:51:11.285Z,1007.48
2019-05-17T09:52:11.293Z,1007.43
2019-05-17T09:53:11.259Z,1007.53
2019-05-17T09:54:11.245Z,1007.51
2019-05-17T09:55:11.259Z,1007.51
2019-05-17T09:56:11.233Z,1007.48
2019-05-17T09:57:11.254Z,1007.48
2019-05-17T09:58:11.209Z,1007.51
2019-05-17T09:59:11.217Z,1007.45
2019-05-17T10:00:11.184Z,1007.47
2019-05-17T10:01:11.176Z,1007.42
2019-05-17T10:02:11.157Z,1007.40
2019-05-17T10:03:11.166Z,1007.35
2019-05-17T10:04:13.400Z,1007.33
2019-05-17T10:05:11.142Z,1007.35
2019-05-17T10:06:11.119Z,1007.31
2019-05-17T10:07:11.115Z,1007.33
2019-05-17T10:08:11.242Z,1007.32
2019-05-17T10:09:11.079Z,1007.41
2019-05-17T10:10:11.111Z,1007.41
2019-05-17T10:11:12.111Z,1007.48
2019-05-17T10:12:11.061Z,1007.48
2019-05-17T10:13:11.065Z,1007.52
2019-05-17T10:14:24.616Z,1007.51
2019-05-17T10:15:12.026Z,1007.50
2019-05-17T10:16:11.024Z,1007.54
2019-05-17T10:17:10.989Z,1007.49
2019-05-17T10:18:11.359Z,1007.51
2019-05-17T10:19:10.969Z,1007.54
2019-05-17T10:20:11.062Z,1007.55
2019-05-17T10:21:10.960Z,1007.29
2019-05-17T10:22:10.947Z,1007.32
2019-05-17T10:23:11.004Z,1007.55
2019-05-17T10:24:10.913Z,1007.31
2019-05-17T10:25:10.903Z,1007.27
2019-05-17T10:26:10.893Z,1007.60
2019-05-17T10:27:11.165Z,1007.36
2019-05-17T10:28:10.903Z,1007.50
2019-05-17T10:29:10.867Z,1007.55
2019-05-17T10:30:10.861Z,1007.55
2019-05-17T10:31:11.981Z,1007.47
2019-05-17T10:32:10.835Z,1007.18
2019-05-17T10:33:10.841Z,1007.16
2019-05-17T10:34:10.835Z,1007.21
2019-05-17T10:35:10.817Z,1007.23
2019-05-17T10:36:10.787Z,1007.21
2019-05-17T10:37:10.773Z,1007.29
2019-05-17T10:38:10.792Z,1007.26
2019-05-17T10:39:10.764Z,1007.25
2019-05-17T10:40:10.925Z,1007.35
2019-05-17T10:41:10.726Z,1007.32
2019-05-17T10:42:10.716Z,1007.28
2019-05-17T10:43:10.731Z,1007.25
2019-05-17T10:44:10.709Z,1007.26
2019-05-17T10:45:11.230Z,1007.29
2019-05-17T10:46:10.782Z,1007.33
2019-05-17T10:47:10.669Z,1007.38
2019-05-17T10:48:10.670Z,1007.33
2019-05-17T10:49:10.991Z,1007.40
2019-05-17T10:50:11.089Z,1007.42
2019-05-17T10:51:13.252Z,1007.40
2019-05-17T10:52:10.626Z,1007.36
2019-05-17T10:53:10.644Z,1007.37
2019-05-17T10:54:10.592Z,1007.39
2019-05-17T10:55:10.922Z,1007.38
2019-05-17T10:56:10.580Z,1007.38
2019-05-17T10:57:10.673Z,1007.40
2019-05-17T10:58:10.618Z,1007.40
2019-05-17T10:59:10.530Z,1007.40
2019-05-17T11:00:10.525Z,1007.36
2019-05-17T11:01:10.507Z,1007.33
2019-05-17T11:02:10.505Z,1007.31
2019-05-17T11:03:10.519Z,1007.34
2019-05-17T11:04:10.597Z,1007.34
2019-05-17T11:05:10.746Z,1007.34
2019-05-17T11:06:11.117Z,1007.31
2019-05-17T11:07:10.659Z,1007.32
2019-05-17T11:08:10.965Z,1007.34
2019-05-17T11:09:10.453Z,1007.35
2019-05-17T11:10:11.675Z,1007.31
2019-05-17T11:11:10.399Z,1007.36
2019-05-17T11:12:10.398Z,1007.30
2019-05-17T11:13:10.392Z,1007.25
2019-05-17T11:14:10.374Z,1007.35
2019-05-17T11:15:11.989Z,1007.34
2019-05-17T11:16:10.353Z,1007.34
2019-05-17T11:17:10.339Z,1007.33
2019-05-17T11:18:10.345Z,1007.29
2019-05-17T11:19:10.316Z,1007.33
2019-05-17T11:20:10.313Z,1007.32
2019-05-17T11:21:10.289Z,1007.33
2019-05-17T11:22:10.365Z,1007.37
2019-05-17T11:23:10.367Z,1007.35
2019-05-17T11:24:10.275Z,1007.36
2019-05-17T11:25:10.250Z,1007.35
2019-05-17T11:26:10.253Z,1007.36
2019-05-17T11:27:10.221Z,1007.30
2019-05-17T11:28:10.245Z,1007.30
2019-05-17T11:29:10.200Z,1007.35
2019-05-17T11:30:10.189Z,1007.31
2019-05-17T11:31:10.188Z,1007.33
2019-05-17T11:32:10.184Z,1007.31
2019-05-17T11:33:10.193Z,1007.31
2019-05-17T11:34:10.147Z,1007.33
2019-05-17T11:35:10.155Z,1007.31
2019-05-17T11:36:10.124Z,1007.31
2019-05-17T11:37:10.121Z,1007.33
2019-05-17T11:38:10.134Z,1007.32
2019-05-17T11:39:10.149Z,1007.33
2019-05-17T11:40:10.101Z,1007.32
2019-05-17T11:41:20.620Z,1007.26
2019-05-17T11:42:11.070Z,1007.32
2019-05-17T11:43:10.075Z,1007.26
2019-05-17T11:44:10.094Z,1007.31
2019-05-17T11:45:10.038Z,1007.30
2019-05-17T11:46:10.026Z,1007.30
2019-05-17T11:47:10.018Z,1007.32
2019-05-17T11:48:10.014Z,1007.24
2019-05-17T11:49:10.007Z,1007.23
2019-05-17T11:50:09.986Z,1007.24
2019-05-17T11:51:09.979Z,1007.23
2019-05-17T11:52:09.999Z,1007.20
2019-05-17T11:54:11.087Z,1007.20
2019-05-17T11:55:09.917Z,1007.22
2019-05-17T11:56:09.951Z,1007.14
2019-05-17T11:57:12.290Z,1007.17
2019-05-17T11:58:09.890Z,1007.23
2019-05-17T11:59:09.893Z,1007.20
2019-05-17T12:00:09.873Z,1007.21
2019-05-17T12:01:09.850Z,1007.19
2019-05-17T12:02:09.839Z,1007.18
2019-05-17T12:03:09.844Z,1007.18
2019-05-17T12:04:09.849Z,1007.17
2019-05-17T12:05:09.811Z,1007.14
2019-05-17T12:06:09.809Z,1007.10
2019-05-17T12:07:09.790Z,1007.09